Latest Coastal Weather Observations for Spring Bay

IDT60701

Issued at 9:45 pm EST Tuesday 30 September 2014 (issued every 10 minutes, with the page automatically refreshed every 10 minutes)

About coastal observations | Map of coastal stations | Coastal observations for TAS | Marine services | Other Formats
Station Details ID: 092133 Name: SPRING BAY NTC AWS Lat: -42.55 Lon: 147.93 Height: 0.0 m
Data from the previous 72 hours. | See also: Recent months for locations in Tasmania
Date/Time
EST
Temp

°C
Wind Pressure Rain
since 9am
mm
Weather Cloud Vis
km
Sea
Height
m
Swell
Dir
 
Speed
knots
Gust
knots
hPa Trend Height
m
Period
s
Dir
30/09:30pm 9.6 WSW 19 30 1000.5 - - - - - - - - -
30/09:15pm 9.7 SW 18 28 1000.6 - - - - - - - - -
30/09:00pm 9.8 SW 16 23 1000.2 - - - - - - - - -
30/08:37pm 10.0 SW 19 29 999.9 - - - - - - - - -
30/08:30pm 10.1 SW 18 24 999.6 - - - - - - - - -
30/08:14pm 10.2 SW 16 26 999.4 - - - - - - - - -
30/08:00pm 10.1 SW 17 24 998.8 - - - - - - - - -
30/07:30pm 10.8 SW 21 31 998.0 - - - - - - - - -
30/07:03pm 11.2 SW 22 34 997.1 - - - - - - - - -
30/07:00pm 11.2 SW 19 29 997.0 - - - - - - - - -
30/06:31pm 11.4 SW 16 27 995.6 - - - - - - - - -
30/06:30pm 11.4 SW 17 27 995.6 - - - - - - - - -
30/06:16pm 12.0 SSW 22 25 995.6 - - - - - - - - -
30/06:10pm 12.6 WSW 15 28 995.5 - - - - - - - - -
30/06:00pm 12.8 SW 8 22 995.6 - - - - - - - - -
30/05:30pm 12.7 WSW 4 7 994.9 - - - - - - - - -
30/05:00pm 12.7 W 8 12 994.1 - - - - - - - - -
30/04:30pm 12.4 S 4 6 993.9 - - - - - - - - -
30/04:00pm 12.3 E 3 7 993.4 - - - - - - - - -
30/03:30pm 11.8 WSW 9 14 993.5 - - - - - - - - -
30/03:00pm 12.9 WSW 18 26 994.1 - - - - - - - - -
30/02:30pm 13.7 W 22 34 993.6 - - - - - - - - -
30/02:26pm 14.6 W 21 33 993.6 - - - - - - - - -
30/02:23pm 15.3 W 24 33 993.3 - - - - - - - - -
30/02:06pm 15.8 WNW 15 27 993.1 - - - - - - - - -
30/02:00pm 15.8 NW 16 23 993.0 - - - - - - - - -
30/01:39pm 15.7 WNW 15 26 993.3 - - - - - - - - -
30/01:30pm 15.7 NW 24 29 993.2 - - - - - - - - -
30/01:08pm 15.7 NW 21 31 993.5 - - - - - - - - -
30/01:00pm 15.2 NW 26 35 993.4 - - - - - - - - -
30/12:30pm 16.7 NW 30 40 993.7 - - - - - - - - -
30/12:00pm 16.3 NW 29 41 994.4 - - - - - - - - -
30/11:30am 16.1 NW 25 36 995.1 - - - - - - - - -
30/11:00am 16.2 NW 24 35 995.7 - - - - - - - - -
30/10:39am 15.8 NW 25 36 996.3 - - - - - - - - -
30/10:30am 15.7 NW 26 36 996.3 - - - - - - - - -
30/10:26am 15.6 NW 32 36 996.2 - - - - - - - - -
30/10:00am 15.8 NW 20 34 996.8 - - - - - - - - -
30/09:39am 15.8 NW 20 35 997.0 - - - - - - - - -
30/09:36am 16.0 NNW 21 27 997.0 - - - - - - - - -
30/09:30am 15.7 NNW 9 17 997.2 - - - - - - - - -
30/09:00am 15.1 NNW 12 20 998.0 - - - - - - - - -
30/08:31am 15.0 NW 15 26 999.0 - - - - - - - - -
30/08:30am 15.0 NW 14 26 999.1 - - - - - - - - -
30/08:00am 14.5 NW 14 26 998.7 - - - - - - - - -
30/07:30am 14.3 NNW 17 29 998.9 - - - - - - - - -
30/07:26am 14.3 NNW 17 29 999.0 - - - - - - - - -
30/07:00am 14.2 N 9 16 999.3 - - - - - - - - -
30/06:37am 14.2 NNW 15 27 999.3 - - - - - - - - -
30/06:30am 14.0 N 13 20 999.5 - - - - - - - - -
30/06:00am 13.9 NNW 12 21 1000.0 - - - - - - - - -
30/05:30am 13.7 NNW 11 17 1000.2 - - - - - - - - -
30/05:00am 13.6 N 11 18 1000.3 - - - - - - - - -
30/04:30am 13.7 N 12 21 1000.4 - - - - - - - - -
30/04:00am 14.0 N 13 22 1000.6 - - - - - - - - -
30/03:30am 13.9 N 12 16 1000.8 - - - - - - - - -
30/03:00am 13.8 N 14 20 1001.2 - - - - - - - - -
30/02:30am 13.3 N 11 16 1001.8 - - - - - - - - -
30/02:00am 13.2 NNW 9 14 1002.2 - - - - - - - - -
30/01:30am 13.2 NNW 13 19 1002.7 - - - - - - - - -
30/01:03am 13.4 NNW 15 26 1002.9 - - - - - - - - -
30/01:00am 13.3 NNW 15 22 1002.8 - - - - - - - - -
30/12:30am 13.3 NNW 11 18 1003.1 - - - - - - - - -
30/12:00am 13.2 N 10 17 1003.3 - - - - - - - - -
 
Date/Time
EST
Temp

°C
Wind Pressure Rain
since 9am
mm
Weather Cloud Vis
km
Sea
Height
m
Swell
Dir
 
Speed
knots
Gust
knots
hPa Trend Height
m
Period
s
Dir
29/11:30pm 12.8 N 4 7 1003.4 - - - - - - - - -
29/11:00pm 13.3 N 7 11 1003.5 - - - - - - - - -
29/10:30pm 13.2 N 10 18 1003.8 - - - - - - - - -
29/10:00pm 13.2 NNW 12 18 1004.0 - - - - - - - - -
29/09:30pm 13.5 NW 10 17 1004.1 - - - - - - - - -
29/09:00pm 13.3 NNW 7 14 1004.0 - - - - - - - - -
29/08:30pm 13.7 NNW 8 15 1004.1 - - - - - - - - -
29/08:00pm 14.2 NNW 9 18 1004.2 - - - - - - - - -
29/07:30pm 14.9 NW 12 18 1003.9 - - - - - - - - -
29/07:00pm 15.4 NNW 12 19 1003.5 - - - - - - - - -
29/06:30pm 15.4 NW 18 26 1003.3 - - - - - - - - -
29/06:00pm 16.0 NW 15 22 1003.1 - - - - - - - - -
29/05:30pm 16.3 NW 19 24 1002.3 - - - - - - - - -
29/05:00pm 16.7 NW 19 29 1002.4 - - - - - - - - -
29/04:47pm 16.7 NW 21 31 1002.3 - - - - - - - - -
29/04:30pm 17.2 NW 17 26 1002.3 - - - - - - - - -
29/04:23pm 17.6 NNW 15 26 1002.4 - - - - - - - - -
29/04:00pm 18.1 NNW 19 26 1002.4 - - - - - - - - -
29/03:30pm 17.3 NW 19 27 1002.6 - - - - - - - - -
29/03:29pm 17.5 NW 20 30 1002.7 - - - - - - - - -
29/03:00pm 17.8 NW 22 27 1002.5 - - - - - - - - -
29/02:43pm 17.9 NW 20 31 1002.6 - - - - - - - - -
29/02:30pm 17.8 NW 19 25 1002.7 - - - - - - - - -
29/02:00pm 18.0 NW 17 22 1002.5 - - - - - - - - -
29/01:30pm 18.0 WNW 11 20 1002.9 - - - - - - - - -
29/01:00pm 17.4 WSW 12 21 1003.2 - - - - - - - - -
29/12:44pm 17.3 WSW 15 25 1003.4 - - - - - - - - -
29/12:30pm 17.1 WSW 17 25 1003.7 - - - - - - - - -
29/12:07pm 17.3 W 20 31 1003.4 - - - - - - - - -
29/12:00pm 17.1 W 18 27 1003.5 - - - - - - - - -
29/11:30am 16.1 W 21 33 1003.4 - - - - - - - - -
29/11:05am 15.5 W 29 39 1003.6 - - - - - - - - -
29/11:00am 15.5 W 30 39 1003.6 - - - - - - - - -
29/10:30am 15.3 W 24 36 1003.7 - - - - - - - - -
29/10:00am 15.0 W 26 36 1003.5 - - - - - - - - -
29/09:30am 14.5 W 31 42 1003.3 - - - - - - - - -
29/09:01am 14.3 W 29 40 1003.3 - - - - - - - - -
29/09:00am 14.3 W 28 37 1003.2 - - - - - - - - -
29/08:42am 14.0 W 26 37 1003.1 - - - - - - - - -
29/08:30am 13.9 W 22 31 1003.1 - - - - - - - - -
29/08:10am 13.5 W 24 34 1002.6 - - - - - - - - -
29/08:00am 13.3 W 25 31 1002.6 - - - - - - - - -
29/07:45am 13.1 W 24 34 1002.3 - - - - - - - - -
29/07:30am 12.9 W 26 33 1002.0 - - - - - - - - -
29/07:00am 12.5 W 23 33 1001.3 - - - - - - - - -
29/06:41am 12.3 W 23 33 1000.8 - - - - - - - - -
29/06:30am 12.2 W 24 31 1000.6 - - - - - - - - -
29/06:18am 12.2 W 25 35 1000.3 - - - - - - - - -
29/06:00am 12.0 W 26 33 999.5 - - - - - - - - -
29/05:34am 12.2 W 30 40 999.3 - - - - - - - - -
29/05:30am 12.1 W 32 40 999.1 - - - - - - - - -
29/05:00am 12.3 W 29 41 998.3 - - - - - - - - -
29/04:45am 12.8 W 35 55 998.1 - - - - - - - - -
29/04:30am 12.6 W 32 43 997.4 - - - - - - - - -
29/04:19am 12.7 W 30 49 997.7 - - - - - - - - -
29/04:00am 13.4 WNW 28 38 996.9 - - - - - - - - -
29/03:36am 13.9 WNW 28 39 996.0 - - - - - - - - -
29/03:32am 14.0 WNW 32 39 996.0 - - - - - - - - -
29/03:30am 14.0 WNW 20 32 996.0 - - - - - - - - -
29/03:04am 14.1 WNW 21 32 996.0 - - - - - - - - -
29/03:00am 14.2 WNW 20 30 995.9 - - - - - - - - -
29/02:35am 14.6 WNW 23 34 996.6 - - - - - - - - -
29/02:30am 14.7 WNW 24 34 996.7 - - - - - - - - -
29/02:10am 15.1 WNW 26 37 996.4 - - - - - - - - -
29/02:00am 15.3 WNW 27 34 996.8 - - - - - - - - -
29/01:35am 15.4 WNW 22 32 997.0 - - - - - - - - -
29/01:30am 15.5 WNW 22 30 997.2 - - - - - - - - -
29/01:12am 15.8 WNW 23 33 997.0 - - - - - - - - -
29/01:00am 15.9 WNW 24 33 996.7 - - - - - - - - -
29/12:30am 16.2 WNW 28 38 996.6 - - - - - - - - -
29/12:02am 16.5 NW 29 39 996.7 - - - - - - - - -
29/12:00am 16.7 NW 30 39 996.6 - - - - - - - - -
 
Date/Time
EST
Temp

°C
Wind Pressure Rain
since 9am
mm
Weather Cloud Vis
km
Sea
Height
m
Swell
Dir
 
Speed
knots
Gust
knots
hPa Trend Height
m
Period
s
Dir
28/11:57pm 16.9 NW 29 39 996.5 - - - - - - - - -
28/11:30pm 16.9 NW 27 32 996.4 - - - - - - - - -
28/11:00pm 16.9 NW 24 29 996.8 - - - - - - - - -
28/10:30pm 16.8 NW 20 25 997.5 - - - - - - - - -
28/10:00pm 17.0 NW 17 24 997.5 - - - - - - - - -
28/09:30pm 17.5 NW 20 26 998.0 - - - - - - - - -
28/09:00pm 17.8 NW 16 21 998.4 - - - - - - - - -
28/08:30pm 17.9 NW 15 18 998.2 - - - - - - - - -
28/08:00pm 18.2 NW 26 35 998.5 - - - - - - - - -
28/07:30pm 18.9 NW 27 35 998.3 - - - - - - - - -
28/07:00pm 19.0 NW 28 41 998.2 - - - - - - - - -
28/06:30pm 18.7 WNW 31 43 997.6 - - - - - - - - -
28/06:04pm 19.1 NW 35 45 997.3 - - - - - - - - -
28/06:00pm 19.1 NW 36 45 997.3 - - - - - - - - -
28/05:30pm 19.4 NW 39 53 996.8 - - - - - - - - -
28/05:03pm 20.0 NW 39 50 997.3 - - - - - - - - -
28/05:00pm 19.6 NW 39 49 997.2 - - - - - - - - -
28/04:30pm 19.7 NW 39 54 997.3 - - - - - - - - -
28/04:00pm 20.8 WNW 44 57 998.6 - - - - - - - - -
28/03:30pm 20.7 WNW 41 55 998.5 - - - - - - - - -
28/03:14pm 20.9 WNW 37 49 998.6 - - - - - - - - -
28/03:13pm 20.6 WNW 35 43 998.7 - - - - - - - - -
28/03:00pm 20.8 WNW 46 61 998.9 - - - - - - - - -
28/02:30pm 21.3 WNW 45 58 998.5 - - - - - - - - -
28/02:00pm 21.7 WNW 42 61 998.7 - - - - - - - - -
28/01:30pm 21.9 WNW 39 53 998.7 - - - - - - - - -
28/01:00pm 22.3 NW 31 43 999.4 - - - - - - - - -
28/12:30pm 20.7 NW 30 42 1001.0 - - - - - - - - -
28/12:00pm 20.1 NW 27 37 1001.4 - - - - - - - - -
28/11:30am 19.9 NW 34 49 1002.3 - - - - - - - - -
28/11:20am 20.2 NW 34 45 1002.6 - - - - - - - - -
28/11:19am 20.0 NW 32 40 1002.7 - - - - - - - - -
28/11:06am 20.1 NW 17 27 1002.8 - - - - - - - - -
28/11:00am 19.6 NW 19 26 1002.5 - - - - - - - - -
28/10:30am 19.1 NW 24 37 1002.5 - - - - - - - - -
28/10:05am 19.1 NW 21 31 1003.2 - - - - - - - - -
28/10:00am 18.9 NW 21 24 1003.3 - - - - - - - - -
28/09:35am 18.3 NW 33 44 1003.5 - - - - - - - - -
28/09:30am 18.2 NW 34 42 1003.6 - - - - - - - - -
28/09:00am 17.4 NW 36 45 1003.9 - - - - - - - - -
28/08:30am 18.3 WNW 39 48 1004.1 - - - - - - - - -
28/08:19am 18.8 WNW 34 46 1003.7 - - - - - - - - -
28/08:12am 18.6 WNW 35 43 1003.9 - - - - - - - - -
28/08:09am 18.5 W 20 42 1004.0 - - - - - - - - -
28/08:00am 18.2 W 19 30 1004.3 - - - - - - - - -
28/07:54am 18.0 WNW 20 30 1004.5 - - - - - - - - -
28/07:52am 17.8 NW 21 30 1004.4 - - - - - - - - -

Other Formats:

Comma delimited format used in spreadsheet applications
http://www.bom.gov.au/fwo/IDT60701/IDT60701.95987.axf

JavaScript Object Notation format (JSON) in row-major order
http://www.bom.gov.au/fwo/IDT60701/IDT60701.95987.json